Time;durP1;ratioP1;P1;durP2;ratioP2;P2;SDS_P1;SDS_P2;PMS_P1;PMS_P2;Temp;Humidity;BMP_temperature;BMP_pressure;BME280_temperature;BME280_humidity;BME280_pressure;Samples;Min_cycle;Max_cycle;Signal;HPM_P1;HPM_P2
2021/03/12 00:09:05;;;;;;;26.23;17.93;;;;;;;1.89;79.77;97878.78;512175;1102;113812;-77
2021/03/12 00:19:17;;;;;;;26.10;17.13;;;;;;;1.81;79.28;97879.22;512111;1102;113982;-75
2021/03/12 00:29:23;;;;;;;25.53;16.97;;;;;;;1.92;80.22;97881.23;512472;1102;113837;-79
2021/03/12 00:39:26;;;;;;;23.03;16.77;;;;;;;1.96;79.97;97887.89;511261;1102;113850;-76
2021/03/12 00:49:40;;;;;;;26.50;17.73;;;;;;;1.87;79.96;97898.75;512366;1101;114299;-75
2021/03/12 00:59:43;;;;;;;24.47;16.83;;;;;;;1.85;79.86;97900.59;512282;1102;114114;-75
2021/03/12 01:09:48;;;;;;;25.13;17.87;;;;;;;1.82;79.97;97887.83;512371;1101;113994;-76
2021/03/12 01:20:04;;;;;;;27.93;18.77;;;;;;;1.75;79.87;97889.92;512148;1102;113847;-74
2021/03/12 01:30:18;;;;;;;23.80;17.70;;;;;;;1.90;79.84;97895.16;512037;1102;113878;-75
2021/03/12 01:40:23;;;;;;;25.00;18.40;;;;;;;1.79;80.11;97888.83;512434;1101;114995;-76
2021/03/12 01:50:27;;;;;;;25.53;17.77;;;;;;;2.08;80.23;97891.55;511875;1102;114735;-76
2021/03/12 02:00:31;;;;;;;26.93;17.03;;;;;;;2.30;80.04;97892.89;511977;1102;113801;-77
2021/03/12 02:10:38;;;;;;;26.73;17.33;;;;;;;2.29;79.81;97908.55;511973;1102;115720;-77
2021/03/12 02:20:54;;;;;;;23.60;16.30;;;;;;;2.36;80.11;97909.84;512229;1102;114697;-77
2021/03/12 02:30:58;;;;;;;23.43;17.13;;;;;;;2.16;79.59;97883.34;512134;1102;113894;-76
2021/03/12 02:41:06;;;;;;;24.20;16.90;;;;;;;1.92;79.62;97903.67;512170;1102;114193;-76
2021/03/12 02:51:11;;;;;;;20.80;15.73;;;;;;;1.87;79.81;97903.92;512553;1102;113972;-77
2021/03/12 03:01:18;;;;;;;24.47;17.15;;;;;;;1.90;79.69;97916.69;512498;1102;113921;-76
2021/03/12 03:11:24;;;;;;;22.53;16.33;;;;;;;2.00;80.42;97909.27;512391;1100;114657;-76
2021/03/12 03:21:36;;;;;;;22.03;15.53;;;;;;;2.16;80.63;97916.16;512522;1102;114610;-76
2021/03/12 03:31:40;;;;;;;19.52;13.50;;;;;;;2.32;80.36;97927.34;512376;1102;114062;-77
2021/03/12 03:41:45;;;;;;;23.85;15.70;;;;;;;2.45;80.76;97930.05;512559;1102;114023;-76
2021/03/12 03:51:54;;;;;;;20.63;14.87;;;;;;;2.52;81.37;97939.14;512535;1102;113865;-76
2021/03/12 04:01:59;;;;;;;23.30;14.37;;;;;;;2.58;81.63;97931.92;512273;1101;113866;-75
2021/03/12 04:12:05;;;;;;;19.63;14.57;;;;;;;2.65;81.91;97941.02;512234;1102;114265;-75
2021/03/12 04:22:21;;;;;;;22.83;15.73;;;;;;;2.68;81.63;97966.75;512310;1102;114276;-77
2021/03/12 04:32:28;;;;;;;24.95;17.55;;;;;;;2.66;81.40;97981.56;512246;1101;114144;-76
2021/03/12 04:42:32;;;;;;;20.95;14.20;;;;;;;2.69;82.01;97988.34;512376;1102;113910;-78
2021/03/12 04:52:39;;;;;;;16.35;11.93;;;;;;;2.75;82.26;97965.48;512286;1102;114455;-77
2021/03/12 05:02:43;;;;;;;14.57;10.10;;;;;;;2.78;81.73;97972.26;512272;1102;113950;-77
2021/03/12 05:12:46;;;;;;;12.40;10.47;;;;;;;2.72;82.31;97991.59;512456;1102;113923;-77
2021/03/12 05:23:01;;;;;;;12.30;9.50;;;;;;;2.70;82.15;97995.19;512271;1100;113854;-75
2021/03/12 05:33:05;;;;;;;9.17;7.63;;;;;;;2.71;82.37;97994.27;512528;1101;113645;-75
2021/03/12 05:43:11;;;;;;;11.67;9.00;;;;;;;2.79;82.36;98003.26;512492;1102;114885;-77
2021/03/12 05:53:27;;;;;;;12.60;8.40;;;;;;;3.00;82.65;98008.12;512000;1102;113938;-77
2021/03/12 06:03:30;;;;;;;11.70;8.10;;;;;;;3.35;82.67;98017.36;512359;1102;113913;-78
2021/03/12 06:13:51;;;;;;;13.20;8.87;;;;;;;3.48;81.36;98028.67;512613;1101;113965;-77
2021/03/12 06:23:54;;;;;;;9.77;7.07;;;;;;;3.64;81.79;98051.94;512402;1102;114795;-77
2021/03/12 06:34:08;;;;;;;10.27;7.27;;;;;;;3.91;81.76;98058.13;513361;1100;113634;-77
2021/03/12 06:44:31;;;;;;;9.17;6.07;;;;;;;4.28;81.03;98073.20;514749;1100;114015;-77
2021/03/12 06:54:34;;;;;;;8.63;5.13;;;;;;;4.59;81.34;98092.89;512059;1102;113673;-75
2021/03/12 07:04:38;;;;;;;6.67;4.73;;;;;;;5.96;79.36;98109.98;512176;1102;113635;-78
2021/03/12 07:14:42;;;;;;;5.70;3.47;;;;;;;6.32;77.92;98128.44;512195;1102;114159;-76
2021/03/12 07:24:45;;;;;;;6.30;3.83;;;;;;;5.81;78.09;98142.30;512520;1102;113515;-75
2021/03/12 07:34:50;;;;;;;7.20;3.90;;;;;;;5.51;78.00;98148.63;512552;1102;113880;-76
2021/03/12 07:44:58;;;;;;;5.80;3.30;;;;;;;5.54;77.84;98153.62;512661;1101;113511;-77
2021/03/12 07:55:06;;;;;;;4.20;3.23;;;;;;;5.34;77.90;98168.80;511673;1102;114442;-66
2021/03/12 08:05:45;;;;;;;8.93;5.70;;;;;;;5.38;77.62;98177.25;511088;1102;113590;-66
2021/03/12 08:16:06;;;;;;;4.28;3.58;;;;;;;5.25;77.70;98205.83;509920;1102;113780;-67
2021/03/12 08:26:13;;;;;;;6.77;4.73;;;;;;;4.98;77.15;98212.70;510794;1102;113760;-68
2021/03/12 08:36:27;;;;;;;5.13;3.70;;;;;;;4.85;78.23;98225.66;510769;1102;114048;-65
2021/03/12 08:46:30;;;;;;;5.67;3.92;;;;;;;4.75;78.12;98245.36;502371;1102;10001725;-66
2021/03/12 08:56:36;;;;;;;8.43;5.07;;;;;;;4.79;78.39;98266.78;510552;1102;114347;-68
2021/03/12 09:06:39;;;;;;;7.33;3.83;;;;;;;5.32;77.94;98266.98;510246;1102;114048;-62
2021/03/12 09:16:47;;;;;;;4.90;4.13;;;;;;;5.51;76.80;98289.22;510683;1102;114001;-69
2021/03/12 09:26:51;;;;;;;5.87;4.20;;;;;;;5.51;76.26;98297.88;510639;1102;114058;-69
2021/03/12 09:36:54;;;;;;;5.60;4.50;;;;;;;5.60;76.15;98318.13;510451;1102;114187;-66
2021/03/12 09:46:59;;;;;;;5.70;5.10;;;;;;;5.87;76.10;98332.05;510374;1102;114038;-69
2021/03/12 09:57:06;;;;;;;6.92;5.03;;;;;;;6.49;75.49;98335.02;510815;1101;113931;-73
2021/03/12 10:07:11;;;;;;;6.97;6.27;;;;;;;6.98;74.48;98342.12;510981;1102;114019;-72
2021/03/12 10:17:18;;;;;;;5.25;4.75;;;;;;;7.48;73.49;98341.27;510735;1101;114233;-71
2021/03/12 10:27:25;;;;;;;6.13;4.80;;;;;;;7.21;72.27;98357.11;510945;1101;114226;-70
2021/03/12 10:37:33;;;;;;;5.97;5.07;;;;;;;6.77;72.37;98374.91;511439;1102;114034;-69
2021/03/12 10:47:37;;;;;;;5.90;4.37;;;;;;;6.81;72.26;98399.83;511127;1102;114152;-69
2021/03/12 10:57:46;;;;;;;6.87;5.00;;;;;;;6.50;72.36;98402.73;511099;1102;114007;-68
2021/03/12 11:07:52;;;;;;;4.70;4.20;;;;;;;6.24;72.53;98404.44;510849;1102;114060;-67
2021/03/12 11:18:00;;;;;;;5.67;4.37;;;;;;;6.28;72.71;98409.35;510869;1102;113932;-63
2021/03/12 11:28:05;;;;;;;4.20;3.80;;;;;;;6.73;72.41;98405.58;510751;1102;114455;-65
2021/03/12 11:38:09;;;;;;;4.67;3.50;;;;;;;7.26;70.94;98415.05;511137;1101;113901;-64
2021/03/12 11:48:13;;;;;;;8.23;4.43;;;;;;;7.18;70.60;98428.64;510928;1102;113929;-73
2021/03/12 11:58:17;;;;;;;4.50;3.30;;;;;;;7.20;69.59;98429.36;511048;1102;114299;-70
2021/03/12 12:08:20;;;;;;;5.57;5.03;;;;;;;6.95;69.59;98446.70;501967;1102;10001260;-64
2021/03/12 12:18:24;;;;;;;7.17;5.43;;;;;;;7.13;69.26;98446.41;510259;1101;114551;-68
2021/03/12 12:28:32;;;;;;;5.00;3.77;;;;;;;7.23;68.73;98457.05;510396;1102;113953;-63
2021/03/12 12:38:35;;;;;;;6.67;4.13;;;;;;;7.40;68.08;98434.98;510420;1102;113604;-71
2021/03/12 12:48:39;;;;;;;9.03;5.77;;;;;;;7.51;68.32;98435.08;510444;1102;113716;-66
2021/03/12 12:58:51;;;;;;;12.33;10.83;;;;;;;7.74;65.78;98431.80;510393;1102;114032;-73
2021/03/12 13:08:55;;;;;;;11.90;10.63;;;;;;;7.36;65.86;98439.59;510467;1102;114535;-77
2021/03/12 13:19:02;;;;;;;9.37;4.73;;;;;;;7.40;65.25;98440.22;510851;1102;114849;-69
2021/03/12 13:29:18;;;;;;;5.85;4.00;;;;;;;7.66;64.70;98438.39;510477;1102;113881;-73
2021/03/12 13:39:22;;;;;;;8.70;3.77;;;;;;;7.66;64.18;98437.55;509836;1101;113825;-64
2021/03/12 13:49:25;;;;;;;6.13;3.80;;;;;;;7.70;64.03;98452.91;510920;1102;113624;-66
2021/03/12 13:59:40;;;;;;;8.13;4.97;;;;;;;8.04;63.93;98457.53;510606;1102;113676;-68
2021/03/12 14:09:46;;;;;;;6.97;3.90;;;;;;;7.91;63.48;98470.63;510560;1101;114797;-69
2021/03/12 14:19:49;;;;;;;6.37;3.70;;;;;;;7.96;63.46;98475.53;510373;1101;113670;-63
2021/03/12 14:30:05;;;;;;;5.20;3.53;;;;;;;8.22;63.62;98478.05;510231;1102;113644;-66
2021/03/12 14:40:14;;;;;;;5.63;3.80;;;;;;;7.78;62.25;98498.58;510801;1102;113644;-67
2021/03/12 14:50:17;;;;;;;8.30;3.60;;;;;;;7.13;62.54;98509.88;510618;1102;113610;-74
2021/03/12 15:00:29;;;;;;;5.37;2.70;;;;;;;6.80;63.00;98505.96;510436;1102;114406;-65
2021/03/12 15:10:35;;;;;;;9.07;4.10;;;;;;;6.59;63.97;98511.67;510930;1102;114538;-73
2021/03/12 15:20:39;;;;;;;5.13;3.93;;;;;;;6.24;65.00;98529.56;510879;1102;114011;-72
2021/03/12 15:30:52;;;;;;;6.27;2.87;;;;;;;5.96;65.72;98526.06;510460;1102;113910;-72
2021/03/12 15:40:55;;;;;;;7.97;3.47;;;;;;;5.88;65.83;98523.91;511066;1102;113742;-69
2021/03/12 15:50:58;;;;;;;6.03;3.13;;;;;;;5.60;65.77;98530.82;511073;1102;113596;-70
2021/03/12 16:01:18;;;;;;;7.27;3.20;;;;;;;5.36;66.23;98538.33;511075;1102;114021;-71
2021/03/12 16:11:26;;;;;;;7.85;3.50;;;;;;;5.31;66.53;98542.05;502437;1102;10001709;-70
2021/03/12 16:21:30;;;;;;;8.60;4.60;;;;;;;5.19;66.50;98553.19;511141;1102;114506;-64
2021/03/12 16:31:44;;;;;;;13.90;8.37;;;;;;;5.01;67.64;98558.52;510925;1102;113718;-69
2021/03/12 16:41:49;;;;;;;22.50;11.03;;;;;;;4.65;68.62;98574.47;510572;1102;114164;-67
2021/03/12 16:51:52;;;;;;;22.57;11.23;;;;;;;4.36;68.74;98577.77;510422;1102;114337;-61
2021/03/12 17:02:09;;;;;;;;;;;;;;;4.11;69.69;98607.68;510347;1102;113947;-68
2021/03/12 17:12:13;;;;;;;39.97;17.33;;;;;;;4.11;69.76;98605.08;510734;1102;100487;-67
2021/03/12 17:22:17;;;;;;;40.23;17.20;;;;;;;4.13;70.36;98626.62;513845;1102;114479;-68
2021/03/12 17:32:33;;;;;;;51.30;22.10;;;;;;;3.97;70.67;98636.13;510321;1101;114327;-71
2021/03/12 17:42:41;;;;;;;13.17;6.77;;;;;;;3.89;70.19;98641.72;510558;1102;114291;-64
2021/03/12 17:52:44;;;;;;;12.60;6.77;;;;;;;3.70;70.23;98639.23;510567;1101;114129;-75
2021/03/12 18:02:59;;;;;;;20.40;10.25;;;;;;;3.40;70.33;98645.04;510298;1101;114298;-66
2021/03/12 18:13:06;;;;;;;31.73;13.30;;;;;;;3.12;70.50;98649.00;510465;1102;114418;-73
2021/03/12 18:23:12;;;;;;;21.30;10.57;;;;;;;2.77;71.18;98653.20;510485;1102;114360;-67
2021/03/12 18:33:20;;;;;;;51.13;21.80;;;;;;;2.44;71.46;98660.81;510354;1102;114469;-72
2021/03/12 18:43:23;;;;;;;29.20;14.85;;;;;;;2.15;71.73;98660.35;510589;1101;114423;-63
2021/03/12 18:53:26;;;;;;;42.77;20.33;;;;;;;1.92;72.71;98659.61;512152;1102;114332;-78
2021/03/12 19:03:48;;;;;;;35.03;16.53;;;;;;;1.66;72.31;98661.58;511793;1102;114438;-65
2021/03/12 19:13:55;;;;;;;30.00;17.32;;;;;;;1.37;73.21;98656.72;510355;1102;114358;-64
2021/03/12 19:24:00;;;;;;;49.67;24.23;;;;;;;1.24;74.15;98648.61;510656;1101;113970;-69
2021/03/12 19:34:09;;;;;;;45.03;26.30;;;;;;;1.01;73.78;98646.97;510854;1102;113953;-62
2021/03/12 19:44:13;;;;;;;33.80;21.00;;;;;;;0.80;75.52;98643.47;510433;1102;114524;-63
2021/03/12 19:54:16;;;;;;;27.53;16.63;;;;;;;0.78;75.26;98638.38;510609;1102;114426;-65
2021/03/12 20:04:32;;;;;;;29.23;16.60;;;;;;;0.68;75.62;98644.81;510400;1102;113947;-65
2021/03/12 20:14:35;;;;;;;;;;;;;;;0.52;76.90;98652.30;510284;1102;114279;-66
2021/03/12 20:24:39;;;;;;;38.27;23.13;;;;;;;0.40;77.12;98651.01;510823;1102;99733;-71
2021/03/12 20:34:49;;;;;;;32.77;18.30;;;;;;;0.38;77.04;98643.34;510351;1102;114401;-71
2021/03/12 20:55:06;;;;;;;21.60;15.25;;;;;;;0.23;76.77;98636.14;509858;1102;113869;-77
2021/03/12 21:05:13;;;;;;;23.70;14.47;;;;;;;0.17;77.97;98634.63;511626;1102;114343;-73
2021/03/12 21:15:17;;;;;;;29.27;18.50;;;;;;;0.20;76.79;98637.12;510944;1101;114629;-70
2021/03/12 21:25:21;;;;;;;30.10;16.57;;;;;;;0.22;76.98;98626.71;510757;1101;114291;-74
2021/03/12 21:35:36;;;;;;;21.47;13.97;;;;;;;0.22;76.31;98622.41;510907;1102;113961;-77
2021/03/12 21:45:39;;;;;;;27.57;14.77;;;;;;;0.20;76.78;98620.77;511845;1102;113951;-73
2021/03/12 21:55:46;;;;;;;24.97;16.07;;;;;;;0.08;76.93;98604.01;512618;1102;114090;-74
2021/03/12 22:05:56;;;;;;;30.20;16.90;;;;;;;0.05;77.22;98597.21;512606;1102;114149;-73
2021/03/12 22:16:00;;;;;;;22.77;15.40;;;;;;;-0.04;77.42;98582.91;510895;1102;114000;-66
2021/03/12 22:26:04;;;;;;;28.83;14.37;;;;;;;-0.09;76.49;98579.64;510591;1102;114292;-66
2021/03/12 22:36:19;;;;;;;31.37;14.53;;;;;;;-0.07;76.95;98575.27;510337;1102;114120;-65
2021/03/12 22:46:22;;;;;;;16.17;11.10;;;;;;;-0.07;77.16;98583.00;510678;1101;114554;-68
2021/03/12 22:56:25;;;;;;;21.00;10.77;;;;;;;-0.15;76.62;98572.97;510390;1101;114211;-66
2021/03/12 23:06:40;;;;;;;21.87;12.00;;;;;;;-0.20;76.27;98558.55;510365;1102;114273;-65
2021/03/12 23:16:44;;;;;;;23.03;14.83;;;;;;;-0.26;76.40;98554.45;510382;1102;114558;-66
2021/03/12 23:26:50;;;;;;;15.40;9.70;;;;;;;-0.32;77.00;98546.95;510489;1101;114214;-66
2021/03/12 23:37:05;;;;;;;24.85;11.55;;;;;;;-0.44;76.74;98546.50;510557;1102;114286;-66
2021/03/12 23:47:09;;;;;;;21.53;13.60;;;;;;;-0.52;77.11;98545.92;510216;1102;114429;-66
2021/03/12 23:57:13;;;;;;;18.97;10.17;;;;;;;-0.66;77.18;98528.34;510686;1102;114769;-68
